createdAt,value
2019-02-26T00:00:44.861Z,21.87
2019-02-26T00:03:11.131Z,21.20
2019-02-26T00:05:38.603Z,23.63
2019-02-26T00:08:06.130Z,25.83
2019-02-26T00:10:35.867Z,27.03
2019-02-26T00:13:03.083Z,21.93
2019-02-26T00:15:33.347Z,24.27
2019-02-26T00:17:59.831Z,19.70
2019-02-26T00:20:29.062Z,23.47
2019-02-26T00:22:57.553Z,21.50
2019-02-26T00:25:25.885Z,20.07
2019-02-26T00:27:55.847Z,22.40
2019-02-26T00:30:22.645Z,23.07
2019-02-26T00:32:50.139Z,21.63
2019-02-26T00:35:19.067Z,24.87
2019-02-26T00:37:48.806Z,21.30
2019-02-26T00:40:19.595Z,20.03
2019-02-26T00:42:45.528Z,21.30
2019-02-26T00:45:13.409Z,21.03
2019-02-26T00:47:41.618Z,20.33
2019-02-26T00:50:11.880Z,20.50
2019-02-26T00:52:39.508Z,22.60
2019-02-26T00:55:09.289Z,22.20
2019-02-26T00:57:38.322Z,20.47
2019-02-26T01:00:09.528Z,19.83
2019-02-26T01:02:36.996Z,19.97
2019-02-26T01:05:06.313Z,20.30
2019-02-26T01:07:33.902Z,19.40
2019-02-26T01:10:01.391Z,19.63
2019-02-26T01:12:30.826Z,23.07
2019-02-26T01:14:58.301Z,22.33
2019-02-26T01:17:25.741Z,21.40
2019-02-26T01:19:54.422Z,23.80
2019-02-26T01:22:22.554Z,28.33
2019-02-26T01:24:51.807Z,25.73
2019-02-26T01:27:19.254Z,23.57
2019-02-26T01:29:47.230Z,24.90
2019-02-26T01:32:17.880Z,23.87
2019-02-26T01:34:47.275Z,26.17
2019-02-26T01:37:14.660Z,20.50
2019-02-26T01:39:42.922Z,24.57
2019-02-26T01:42:13.427Z,22.00
2019-02-26T01:44:42.218Z,22.97
2019-02-26T01:47:10.000Z,29.83
2019-02-26T01:49:37.468Z,31.53
2019-02-26T01:52:06.290Z,26.77
2019-02-26T01:54:35.587Z,24.63
2019-02-26T01:57:03.808Z,23.43
2019-02-26T01:59:31.719Z,19.10
2019-02-26T02:02:00.534Z,23.17
2019-02-26T02:04:28.052Z,19.33
2019-02-26T02:06:57.098Z,19.63
2019-02-26T02:09:25.210Z,20.30
2019-02-26T02:11:52.650Z,18.93
2019-02-26T02:14:20.135Z,20.80
2019-02-26T02:16:47.606Z,21.07
2019-02-26T02:19:18.026Z,22.87
2019-02-26T02:21:44.357Z,20.40
2019-02-26T02:24:14.700Z,21.00
2019-02-26T02:26:43.430Z,20.67
2019-02-26T02:29:12.614Z,21.10
2019-02-26T02:31:40.228Z,21.83
2019-02-26T02:34:07.791Z,21.27
2019-02-26T02:36:35.242Z,22.00
2019-02-26T02:39:10.339Z,22.43
2019-02-26T02:41:33.738Z,16.90
2019-02-26T02:44:01.192Z,21.73
2019-02-26T02:46:28.693Z,22.60
2019-02-26T02:48:56.167Z,16.83
2019-02-26T02:51:25.548Z,18.50
2019-02-26T02:53:54.161Z,19.53
2019-02-26T02:56:24.666Z,18.83
2019-02-26T02:58:52.162Z,18.40
2019-02-26T03:01:22.281Z,18.03
2019-02-26T03:03:50.586Z,22.07
2019-02-26T03:06:18.272Z,22.40
2019-02-26T03:08:47.818Z,20.17
2019-02-26T03:11:15.015Z,27.47
2019-02-26T03:13:43.138Z,22.33
2019-02-26T03:16:13.450Z,20.53
2019-02-26T03:18:41.050Z,24.50
2019-02-26T03:21:08.591Z,20.13
2019-02-26T03:23:37.973Z,19.40
2019-02-26T03:26:05.318Z,19.07
2019-02-26T03:28:37.128Z,20.10
2019-02-26T03:31:02.082Z,19.53
2019-02-26T03:33:29.555Z,21.93
2019-02-26T03:35:57.028Z,21.43
2019-02-26T03:38:26.856Z,21.63
2019-02-26T03:40:55.501Z,24.33
2019-02-26T03:43:23.062Z,19.60
2019-02-26T03:45:50.582Z,25.53
2019-02-26T03:48:20.120Z,23.40
2019-02-26T03:50:47.348Z,20.43
2019-02-26T03:53:14.816Z,25.20
2019-02-26T03:55:43.956Z,26.97
2019-02-26T03:58:11.998Z,19.60
2019-02-26T04:00:41.726Z,19.77
2019-02-26T04:03:10.159Z,19.57
2019-02-26T04:05:38.007Z,21.17
2019-02-26T04:08:05.492Z,16.80
2019-02-26T04:10:33.013Z,17.83
2019-02-26T04:13:00.480Z,20.93
2019-02-26T04:15:30.223Z,19.73
2019-02-26T04:17:57.224Z,20.23
2019-02-26T04:20:26.972Z,21.77
2019-02-26T04:22:56.762Z,22.43
2019-02-26T04:25:28.350Z,21.57
2019-02-26T04:28:02.647Z,18.63
2019-02-26T04:31:14.854Z,20.57
2019-02-26T04:34:08.527Z,18.23
2019-02-26T04:37:20.995Z,20.80
2019-02-26T04:40:15.470Z,25.60
2019-02-26T04:43:10.471Z,20.23
2019-02-26T04:46:28.022Z,21.50
2019-02-26T04:48:55.348Z,23.57
2019-02-26T04:51:22.730Z,18.17
2019-02-26T04:53:51.910Z,16.47
2019-02-26T04:56:19.529Z,20.87
2019-02-26T04:58:47.792Z,19.30
2019-02-26T05:01:16.462Z,18.07
2019-02-26T05:03:44.556Z,17.80
2019-02-26T05:06:12.018Z,24.03
2019-02-26T05:08:40.242Z,18.20
2019-02-26T05:11:08.962Z,19.23
2019-02-26T05:13:36.417Z,21.73
2019-02-26T05:16:03.912Z,18.97
2019-02-26T05:18:33.715Z,20.30
2019-02-26T05:21:02.755Z,16.57
2019-02-26T05:23:32.998Z,21.30
2019-02-26T05:26:02.898Z,17.37
2019-02-26T05:28:29.873Z,21.20
2019-02-26T05:30:57.959Z,22.00
2019-02-26T05:33:27.788Z,21.73
2019-02-26T05:35:54.699Z,19.83
2019-02-26T05:38:23.983Z,20.97
2019-02-26T05:40:53.863Z,19.90
2019-02-26T05:43:22.974Z,19.40
2019-02-26T05:45:51.026Z,18.77
2019-02-26T05:48:21.270Z,18.20
2019-02-26T05:50:48.695Z,17.27
2019-02-26T05:53:16.391Z,17.67
2019-02-26T05:55:45.079Z,18.63
2019-02-26T05:58:15.851Z,18.50
2019-02-26T06:00:42.416Z,21.77
2019-02-26T06:03:12.273Z,17.80
2019-02-26T06:05:43.420Z,16.70
2019-02-26T06:08:08.481Z,17.80
2019-02-26T06:10:35.987Z,18.93
2019-02-26T06:13:05.006Z,19.07
2019-02-26T06:15:34.182Z,18.77
2019-02-26T06:18:01.781Z,17.47
2019-02-26T06:20:32.116Z,20.67
2019-02-26T06:22:58.538Z,24.87
2019-02-26T06:25:26.147Z,23.07
2019-02-26T06:27:53.548Z,24.87
2019-02-26T06:30:21.042Z,20.80
2019-02-26T06:32:48.533Z,21.30
2019-02-26T06:35:18.599Z,18.83
2019-02-26T06:37:45.342Z,22.80
2019-02-26T06:40:13.187Z,20.03
2019-02-26T06:42:40.655Z,18.67
2019-02-26T06:45:10.983Z,22.73
2019-02-26T06:47:39.242Z,20.97
2019-02-26T06:50:08.184Z,21.90
2019-02-26T06:52:38.180Z,23.30
2019-02-26T06:55:07.812Z,20.30
2019-02-26T06:57:35.308Z,19.80
2019-02-26T07:00:04.299Z,18.10
2019-02-26T07:02:31.857Z,18.07
2019-02-26T07:04:59.352Z,20.07
2019-02-26T07:07:26.845Z,17.33
2019-02-26T07:09:57.508Z,14.60
2019-02-26T07:12:24.102Z,18.90
2019-02-26T07:14:53.509Z,16.87
2019-02-26T07:17:22.211Z,18.83
2019-02-26T07:19:51.206Z,17.57
2019-02-26T07:22:19.075Z,17.07
2019-02-26T07:24:48.769Z,13.90
2019-02-26T07:27:16.035Z,35.97
2019-02-26T07:29:45.611Z,20.70
2019-02-26T07:32:14.617Z,16.93
2019-02-26T07:34:42.952Z,17.33
2019-02-26T07:37:13.363Z,11.43
2019-02-26T07:39:41.972Z,15.87
2019-02-26T07:42:11.485Z,19.47
2019-02-26T07:44:39.221Z,11.77
2019-02-26T07:47:08.791Z,13.17
2019-02-26T07:49:36.076Z,11.87
2019-02-26T07:52:06.047Z,13.90
2019-02-26T07:54:32.962Z,14.70
2019-02-26T07:57:02.597Z,13.00
2019-02-26T07:59:32.340Z,13.77
2019-02-26T08:01:59.039Z,15.63
2019-02-26T08:04:26.478Z,13.60
2019-02-26T08:06:56.674Z,16.30
2019-02-26T08:09:23.656Z,11.73
2019-02-26T08:11:51.270Z,21.93
2019-02-26T08:14:20.897Z,19.23
2019-02-26T08:16:51.628Z,14.17
2019-02-26T08:19:17.634Z,14.73
2019-02-26T08:21:45.496Z,13.13
2019-02-26T08:24:14.866Z,12.83
2019-02-26T08:26:43.365Z,14.43
2019-02-26T08:29:12.504Z,15.20
2019-02-26T08:31:42.537Z,14.57
2019-02-26T08:34:12.637Z,12.37
2019-02-26T08:36:38.597Z,12.60
2019-02-26T08:39:07.143Z,14.83
2019-02-26T08:41:34.665Z,15.23
2019-02-26T08:44:02.172Z,16.20
2019-02-26T08:46:29.670Z,15.50
2019-02-26T08:48:57.137Z,12.60
2019-02-26T08:51:24.648Z,13.50
2019-02-26T08:53:54.593Z,12.90
2019-02-26T08:56:23.641Z,15.60
2019-02-26T08:58:50.721Z,13.67
2019-02-26T09:01:18.223Z,18.53
2019-02-26T09:03:45.733Z,16.97
2019-02-26T09:06:14.583Z,14.43
2019-02-26T09:08:43.137Z,16.33
2019-02-26T09:11:11.626Z,16.03
2019-02-26T09:13:41.178Z,16.30
2019-02-26T09:16:09.474Z,13.93
2019-02-26T09:18:38.696Z,17.93
2019-02-26T09:21:07.135Z,16.60
2019-02-26T09:23:34.737Z,16.07
2019-02-26T09:26:04.455Z,21.33
2019-02-26T09:28:32.103Z,16.33
2019-02-26T09:31:03.720Z,17.80
2019-02-26T09:33:32.587Z,46.17
2019-02-26T09:35:58.325Z,15.87
2019-02-26T09:38:25.869Z,18.40
2019-02-26T09:40:54.678Z,17.13
2019-02-26T09:43:24.446Z,18.67
2019-02-26T09:45:52.924Z,17.37
2019-02-26T09:48:21.980Z,17.90
2019-02-26T09:50:49.656Z,14.20
2019-02-26T09:53:17.154Z,17.73
2019-02-26T09:55:44.614Z,16.27
2019-02-26T09:58:13.433Z,18.10
2019-02-26T10:00:43.027Z,21.30
2019-02-26T10:03:12.715Z,16.23
2019-02-26T10:05:39.952Z,16.17
2019-02-26T10:08:07.482Z,16.13
2019-02-26T10:10:39.178Z,17.17
2019-02-26T10:13:04.854Z,18.23
2019-02-26T10:15:34.653Z,17.30
2019-02-26T10:18:04.037Z,15.80
2019-02-26T10:20:31.762Z,17.37
2019-02-26T10:23:01.246Z,18.03
2019-02-26T10:25:32.185Z,25.70
2019-02-26T10:28:03.096Z,16.37
2019-02-26T10:30:30.017Z,14.30
2019-02-26T10:33:01.963Z,13.97
2019-02-26T10:35:33.350Z,13.43
2019-02-26T10:37:57.136Z,12.70
2019-02-26T10:40:34.722Z,14.60
2019-02-26T10:42:54.780Z,14.93
2019-02-26T10:45:23.714Z,11.43
2019-02-26T10:47:51.769Z,15.53
2019-02-26T10:50:22.850Z,13.70
2019-02-26T10:52:50.096Z,14.87
2019-02-26T10:55:18.364Z,13.77
2019-02-26T10:57:47.795Z,16.00
2019-02-26T11:00:18.482Z,13.13
2019-02-26T11:02:46.540Z,12.43
2019-02-26T11:05:17.541Z,11.93
2019-02-26T11:07:44.799Z,13.17
2019-02-26T11:10:14.501Z,15.07
2019-02-26T11:12:41.758Z,13.70
2019-02-26T11:15:09.665Z,14.90
2019-02-26T11:17:37.205Z,13.03
2019-02-26T11:20:07.665Z,12.43
2019-02-26T11:22:34.732Z,13.90
2019-02-26T11:25:02.198Z,12.40
2019-02-26T11:27:29.706Z,13.53
2019-02-26T11:29:59.466Z,12.20
2019-02-26T11:32:27.803Z,11.63
2019-02-26T11:34:57.510Z,13.43
2019-02-26T11:37:27.062Z,12.13
2019-02-26T11:39:55.183Z,13.87
2019-02-26T11:42:25.584Z,13.10
2019-02-26T11:44:52.915Z,13.03
2019-02-26T11:47:20.667Z,17.67
2019-02-26T11:49:48.134Z,17.83
2019-02-26T11:52:19.638Z,18.70
2019-02-26T11:54:44.946Z,12.17
2019-02-26T11:57:13.401Z,12.17
2019-02-26T11:59:42.853Z,14.40
2019-02-26T12:02:10.421Z,14.60
2019-02-26T12:04:38.140Z,17.47
2019-02-26T12:07:07.402Z,16.33
2019-02-26T12:09:37.829Z,15.57
2019-02-26T12:12:06.102Z,12.60
2019-02-26T12:14:34.708Z,11.47
2019-02-26T12:17:02.787Z,15.67
2019-02-26T12:19:31.184Z,15.00
2019-02-26T12:22:02.810Z,13.13
2019-02-26T12:24:29.368Z,14.27
2019-02-26T12:26:58.196Z,16.17
2019-02-26T12:29:28.361Z,15.10
2019-02-26T12:31:55.741Z,27.97
2019-02-26T12:34:24.604Z,13.93
2019-02-26T12:36:57.273Z,12.97
2019-02-26T12:39:25.164Z,12.27
2019-02-26T12:41:52.478Z,16.57
2019-02-26T12:44:19.935Z,13.20
2019-02-26T12:46:48.418Z,14.80
2019-02-26T12:49:18.436Z,11.90
2019-02-26T12:51:47.610Z,15.47
2019-02-26T12:54:15.758Z,17.50
2019-02-26T12:56:43.300Z,13.77
2019-02-26T12:59:10.762Z,15.10
2019-02-26T13:01:39.762Z,14.93
2019-02-26T13:04:09.405Z,17.03
2019-02-26T13:06:38.296Z,14.40
2019-02-26T13:09:06.739Z,19.80
2019-02-26T13:11:34.594Z,17.43
2019-02-26T13:14:02.070Z,17.53
2019-02-26T13:16:29.534Z,16.30
2019-02-26T13:19:00.898Z,17.27
2019-02-26T13:21:26.557Z,16.27
2019-02-26T13:23:58.648Z,15.30
2019-02-26T13:26:23.365Z,11.53
2019-02-26T13:28:52.835Z,14.80
2019-02-26T13:31:22.537Z,12.93
2019-02-26T13:33:49.593Z,12.33
2019-02-26T13:36:17.121Z,13.67
2019-02-26T13:38:48.284Z,16.57
2019-02-26T13:41:28.940Z,16.03
2019-02-26T13:43:43.192Z,12.57
2019-02-26T13:46:10.705Z,13.70
2019-02-26T13:48:38.172Z,17.53
2019-02-26T13:51:05.733Z,13.83
2019-02-26T13:53:33.541Z,15.43
2019-02-26T13:56:00.985Z,13.40
2019-02-26T13:58:28.457Z,15.37
2019-02-26T14:00:56.256Z,11.53
2019-02-26T14:03:23.834Z,7.10
2019-02-26T14:05:51.359Z,3.90
2019-02-26T14:08:18.904Z,3.33
2019-02-26T14:10:46.375Z,5.90
2019-02-26T14:13:13.908Z,5.17
2019-02-26T14:15:41.520Z,4.50
2019-02-26T14:18:09.310Z,2.17
2019-02-26T14:20:36.798Z,4.60
2019-02-26T14:23:04.271Z,2.93
2019-02-26T14:25:32.013Z,3.07
2019-02-26T14:27:59.589Z,3.33
2019-02-26T14:30:27.075Z,3.20
2019-02-26T14:32:54.626Z,4.83
2019-02-26T14:35:22.099Z,3.27
2019-02-26T14:37:49.607Z,8.40
2019-02-26T14:40:17.458Z,3.20
2019-02-26T14:42:45.114Z,6.17
2019-02-26T14:45:13.851Z,3.20
2019-02-26T14:47:41.346Z,3.83
2019-02-26T14:50:11.278Z,4.50
2019-02-26T14:52:39.129Z,4.47
2019-02-26T14:55:07.146Z,7.37
2019-02-26T14:57:34.654Z,7.53
2019-02-26T15:00:02.153Z,5.43
2019-02-26T15:02:29.671Z,5.43
2019-02-26T15:04:57.161Z,6.30
2019-02-26T15:07:24.676Z,4.03
2019-02-26T15:09:52.174Z,4.20
2019-02-26T15:12:19.682Z,5.13
2019-02-26T15:14:48.832Z,4.03
2019-02-26T15:17:16.448Z,3.73
2019-02-26T15:19:49.737Z,6.30
2019-02-26T15:22:14.832Z,3.33
2019-02-26T15:24:42.566Z,4.60
2019-02-26T15:27:10.027Z,5.50
2019-02-26T15:29:37.487Z,3.77
2019-02-26T15:32:05.056Z,3.50
2019-02-26T15:34:32.560Z,3.63
2019-02-26T15:37:00.066Z,3.30
2019-02-26T15:39:27.597Z,3.70
2019-02-26T15:41:55.103Z,5.87
2019-02-26T15:44:22.971Z,3.87
2019-02-26T15:46:50.466Z,4.93
2019-02-26T15:49:17.958Z,3.87
2019-02-26T15:51:45.508Z,3.00
2019-02-26T15:54:13.036Z,4.53
2019-02-26T15:56:40.555Z,5.70
2019-02-26T15:59:08.074Z,9.93
2019-02-26T16:01:35.557Z,6.17
2019-02-26T16:04:03.451Z,3.63
2019-02-26T16:06:30.933Z,2.87
2019-02-26T16:08:58.400Z,4.03
2019-02-26T16:11:26.311Z,5.67
2019-02-26T16:13:53.859Z,6.73
2019-02-26T16:16:21.395Z,3.90
2019-02-26T16:18:48.887Z,4.10
2019-02-26T16:21:18.495Z,4.20
2019-02-26T16:23:45.730Z,8.33
2019-02-26T16:26:13.222Z,7.27
2019-02-26T16:28:40.784Z,3.73
2019-02-26T16:31:09.289Z,4.60
2019-02-26T16:33:36.827Z,5.40
2019-02-26T16:36:04.387Z,4.87
2019-02-26T16:38:32.244Z,7.60
2019-02-26T16:40:59.754Z,5.87
2019-02-26T16:43:27.721Z,11.00
2019-02-26T16:45:55.384Z,5.10
2019-02-26T16:48:22.846Z,8.30
2019-02-26T16:50:50.518Z,6.00
2019-02-26T16:53:18.146Z,9.27
2019-02-26T16:55:48.500Z,8.73
2019-02-26T16:58:15.007Z,7.63
2019-02-26T17:00:42.639Z,9.97
2019-02-26T17:03:12.718Z,8.10
2019-02-26T17:05:40.868Z,8.00
2019-02-26T17:08:08.466Z,10.83
2019-02-26T17:10:43.276Z,10.10
2019-02-26T17:13:10.835Z,8.50
2019-02-26T17:15:38.382Z,6.60
2019-02-26T17:18:09.594Z,9.80
2019-02-26T17:20:35.569Z,6.27
2019-02-26T17:23:03.114Z,8.10
2019-02-26T17:25:30.689Z,7.17
2019-02-26T17:27:58.207Z,7.40
2019-02-26T17:30:27.258Z,6.47
2019-02-26T17:32:54.823Z,7.83
2019-02-26T17:35:23.140Z,5.60
2019-02-26T17:37:50.711Z,19.67
2019-02-26T17:40:18.728Z,6.03
2019-02-26T17:42:46.279Z,10.50
2019-02-26T17:45:16.345Z,6.10
2019-02-26T17:47:43.892Z,4.93
2019-02-26T17:50:14.095Z,6.33
2019-02-26T17:52:41.637Z,5.83
2019-02-26T17:55:09.957Z,5.07
2019-02-26T17:57:37.793Z,5.90
2019-02-26T18:00:07.588Z,5.87
2019-02-26T18:02:35.105Z,6.70
2019-02-26T18:05:03.071Z,9.97
2019-02-26T18:07:30.842Z,7.27
2019-02-26T18:09:58.351Z,6.33
2019-02-26T18:12:25.997Z,8.60
2019-02-26T18:14:53.537Z,11.13
2019-02-26T18:17:21.038Z,7.67
2019-02-26T18:19:49.683Z,16.23
2019-02-26T18:22:21.368Z,7.33
2019-02-26T18:24:46.994Z,9.77
2019-02-26T18:27:14.547Z,10.00
2019-02-26T18:29:42.158Z,10.17
2019-02-26T18:32:11.262Z,10.23
2019-02-26T18:34:39.164Z,11.77
2019-02-26T18:37:07.732Z,9.20
2019-02-26T18:39:35.290Z,11.33
2019-02-26T18:42:02.818Z,9.80
2019-02-26T18:44:30.389Z,11.70
2019-02-26T18:46:57.921Z,11.87
2019-02-26T18:49:25.551Z,9.43
2019-02-26T18:51:53.079Z,10.57
2019-02-26T18:54:21.118Z,13.33
2019-02-26T18:56:48.758Z,11.17
2019-02-26T18:59:16.251Z,9.93
2019-02-26T19:01:43.831Z,9.60
2019-02-26T19:04:11.410Z,13.67
2019-02-26T19:06:38.901Z,10.80
2019-02-26T19:09:11.503Z,11.73
2019-02-26T19:11:36.718Z,11.67
2019-02-26T19:14:06.571Z,12.93
2019-02-26T19:16:33.587Z,10.43
2019-02-26T19:19:01.157Z,11.03
2019-02-26T19:21:28.936Z,11.63
2019-02-26T19:23:56.699Z,14.20
2019-02-26T19:26:24.223Z,8.73
2019-02-26T19:28:51.743Z,8.57
2019-02-26T19:33:54.812Z,10.33
2019-02-26T19:36:23.236Z,8.67
2019-02-26T19:38:50.803Z,8.93
2019-02-26T19:41:18.394Z,11.70
2019-02-26T19:43:46.010Z,11.23
2019-02-26T19:46:16.873Z,12.23
2019-02-26T19:48:43.029Z,13.17
2019-02-26T19:51:10.991Z,12.50
2019-02-26T19:53:38.541Z,13.57
2019-02-26T19:56:06.162Z,8.70
2019-02-26T19:58:33.792Z,13.80
2019-02-26T20:01:01.427Z,11.97
2019-02-26T20:03:39.262Z,10.37
2019-02-26T20:05:58.454Z,15.87
2019-02-26T20:08:26.056Z,18.53
2019-02-26T20:10:54.161Z,14.27
2019-02-26T20:13:21.885Z,15.33
2019-02-26T20:15:54.624Z,17.90
2019-02-26T20:18:21.089Z,19.77
2019-02-26T20:20:49.232Z,13.03
2019-02-26T20:23:17.077Z,11.57
2019-02-26T20:25:44.517Z,9.30
2019-02-26T20:28:12.074Z,19.73
2019-02-26T20:30:39.612Z,12.87
2019-02-26T20:33:07.148Z,10.70
2019-02-26T20:35:34.736Z,13.60
2019-02-26T20:38:02.254Z,11.33
2019-02-26T20:40:29.864Z,14.90
2019-02-26T20:43:01.374Z,15.17
2019-02-26T20:45:26.744Z,14.93
2019-02-26T20:47:54.316Z,13.27
2019-02-26T20:50:23.866Z,15.00
2019-02-26T20:52:51.418Z,13.47
2019-02-26T20:55:19.997Z,14.27
2019-02-26T20:57:47.556Z,14.57
2019-02-26T21:00:16.220Z,16.30
2019-02-26T21:02:43.731Z,12.93
2019-02-26T21:05:11.256Z,15.80
2019-02-26T21:07:38.762Z,12.47
2019-02-26T21:10:06.731Z,15.77
2019-02-26T21:12:34.841Z,14.10
2019-02-26T21:15:02.567Z,15.87
2019-02-26T21:17:30.055Z,15.97
2019-02-26T21:19:57.602Z,12.60
2019-02-26T21:22:25.120Z,17.70
2019-02-26T21:24:52.693Z,15.13
2019-02-26T21:27:20.222Z,12.90
2019-02-26T21:29:47.826Z,14.20
2019-02-26T21:32:15.552Z,14.57
2019-02-26T21:34:43.040Z,15.47
2019-02-26T21:37:10.507Z,16.33
2019-02-26T21:39:38.049Z,19.07
2019-02-26T21:42:05.522Z,15.30
2019-02-26T21:44:33.952Z,16.33
2019-02-26T21:47:01.512Z,17.57
2019-02-26T21:49:29.020Z,16.17
2019-02-26T21:51:56.478Z,17.87
2019-02-26T21:54:24.817Z,16.73
2019-02-26T21:56:52.785Z,15.90
2019-02-26T21:59:20.343Z,17.10
2019-02-26T22:01:47.874Z,15.47
2019-02-26T22:04:15.357Z,18.17
2019-02-26T22:06:44.844Z,14.47
2019-02-26T22:09:12.230Z,18.00
2019-02-26T22:11:39.762Z,19.43
2019-02-26T22:14:07.670Z,15.70
2019-02-26T22:16:35.137Z,24.53
2019-02-26T22:19:04.729Z,23.13
2019-02-26T22:21:31.952Z,17.80
2019-02-26T22:23:59.429Z,20.40
2019-02-26T22:26:26.906Z,17.30
2019-02-26T22:28:54.445Z,20.37
2019-02-26T22:31:21.927Z,18.33
2019-02-26T22:33:49.400Z,19.13
2019-02-26T22:36:16.914Z,20.53
2019-02-26T22:38:46.136Z,16.97
2019-02-26T22:41:13.687Z,20.37
2019-02-26T22:43:41.198Z,14.97
2019-02-26T22:46:08.726Z,15.87
2019-02-26T22:48:36.244Z,19.60
2019-02-26T22:51:03.728Z,17.47
2019-02-26T22:53:31.208Z,14.17
2019-02-26T22:55:58.740Z,18.27
2019-02-26T22:58:26.256Z,17.73
2019-02-26T23:01:19.999Z,16.63
2019-02-26T23:03:47.626Z,18.77
2019-02-26T23:06:15.095Z,13.57
2019-02-26T23:08:44.860Z,19.77
2019-02-26T23:11:12.962Z,16.57
2019-02-26T23:13:42.407Z,16.80
2019-02-26T23:16:10.074Z,15.53
2019-02-26T23:18:37.891Z,17.87
2019-02-26T23:21:05.810Z,22.37
2019-02-26T23:23:33.423Z,19.87
2019-02-26T23:26:01.021Z,16.73
2019-02-26T23:28:28.596Z,20.17
2019-02-26T23:30:59.643Z,16.83
2019-02-26T23:33:25.396Z,25.20
2019-02-26T23:35:55.143Z,16.30
2019-02-26T23:38:22.184Z,20.43
2019-02-26T23:40:49.915Z,17.67
2019-02-26T23:43:17.409Z,14.97
2019-02-26T23:45:44.958Z,17.33
2019-02-26T23:48:12.460Z,19.37
2019-02-26T23:50:39.983Z,22.17
2019-02-26T23:53:07.500Z,15.23
2019-02-26T23:55:34.959Z,16.80
2019-02-26T23:58:02.484Z,17.27
